createdAt,value
2022-08-25T00:00:42.650Z,101045.56
2022-08-25T00:03:17.880Z,101043.67
2022-08-25T00:05:52.576Z,101038.40
2022-08-25T00:08:40.736Z,101034.54
2022-08-25T00:11:47.052Z,101036.59
2022-08-25T00:14:23.881Z,101036.77
2022-08-25T00:17:00.889Z,101037.48
2022-08-25T00:19:39.097Z,101040.61
2022-08-25T00:22:26.836Z,101035.63
2022-08-25T00:24:58.497Z,101031.29
2022-08-25T00:27:40.623Z,101029.70
2022-08-25T00:30:16.045Z,101029.74
2022-08-25T00:33:08.751Z,101030.19
2022-08-25T00:36:12.357Z,101026.52
2022-08-25T00:39:05.962Z,101026.15
2022-08-25T00:41:44.236Z,101023.93
2022-08-25T00:44:20.533Z,101021.91
2022-08-25T00:47:05.365Z,101023.80
2022-08-25T00:49:51.255Z,101024.30
2022-08-25T00:52:44.380Z,101022.13
2022-08-25T00:55:24.673Z,101022.17
2022-08-25T00:58:24.852Z,101024.38
2022-08-25T01:01:11.657Z,101028.73
2022-08-25T01:03:44.897Z,101026.90
2022-08-25T01:06:22.691Z,101025.66
2022-08-25T01:08:54.865Z,101026.56
2022-08-25T01:11:32.153Z,101024.98
2022-08-25T01:14:12.024Z,101027.33
2022-08-25T01:16:46.526Z,101024.86
2022-08-25T01:19:30.388Z,101024.05
2022-08-25T01:22:08.631Z,101024.30
2022-08-25T01:25:12.769Z,101023.64
2022-08-25T01:27:41.783Z,101030.33
2022-08-25T01:30:20.083Z,101037.09
2022-08-25T01:32:59.739Z,101035.87
2022-08-25T01:35:43.549Z,101032.05
2022-08-25T01:38:26.931Z,101030.64
2022-08-25T01:41:10.339Z,101028.07
2022-08-25T01:43:42.176Z,101028.65
2022-08-25T01:46:19.639Z,101029.73
2022-08-25T01:48:53.599Z,101024.48
2022-08-25T01:51:53.725Z,101028.48
2022-08-25T01:54:25.539Z,101024.05
2022-08-25T01:57:11.778Z,101021.73
2022-08-25T01:59:50.025Z,101019.77
2022-08-25T02:02:37.447Z,101019.16
2022-08-25T02:05:14.317Z,101022.36
2022-08-25T02:07:58.469Z,101023.25
2022-08-25T02:10:34.634Z,101019.34
2022-08-25T02:13:08.349Z,101015.14
2022-08-25T02:15:54.437Z,101013.54
2022-08-25T02:18:32.506Z,101011.02
2022-08-25T02:21:11.751Z,101013.11
2022-08-25T02:23:54.451Z,101018.52
2022-08-25T02:26:26.414Z,101016.42
2022-08-25T02:28:58.243Z,101010.61
2022-08-25T02:31:35.870Z,101008.09
2022-08-25T02:34:09.007Z,101005.23
2022-08-25T02:36:49.317Z,101005.61
2022-08-25T02:39:18.240Z,101003.48
2022-08-25T02:41:56.275Z,101002.02
2022-08-25T02:44:25.104Z,101002.63
2022-08-25T02:46:56.418Z,101003.62
2022-08-25T02:49:32.513Z,101003.60
2022-08-25T02:52:07.423Z,100999.63
2022-08-25T02:54:39.696Z,101000.54
2022-08-25T02:57:16.077Z,101000.05
2022-08-25T02:59:57.394Z,100997.77
2022-08-25T03:02:27.478Z,101000.29
2022-08-25T03:04:59.372Z,100999.18
2022-08-25T03:07:55.058Z,100999.70
2022-08-25T03:10:29.164Z,101002.89
2022-08-25T03:13:13.422Z,101003.80
2022-08-25T03:15:54.595Z,101004.84
2022-08-25T03:18:34.857Z,101005.14
2022-08-25T03:21:10.084Z,101005.14
2022-08-25T03:23:42.705Z,101003.33
2022-08-25T03:26:40.879Z,101003.36
2022-08-25T03:29:19.037Z,100998.74
2022-08-25T03:31:48.701Z,100997.75
2022-08-25T03:34:37.277Z,100993.63
2022-08-25T03:37:12.561Z,100995.66
2022-08-25T03:39:49.568Z,100997.97
2022-08-25T03:42:26.999Z,100998.77
2022-08-25T03:44:59.461Z,100999.52
2022-08-25T03:47:29.921Z,100999.95
2022-08-25T03:50:01.180Z,100998.54
2022-08-25T03:52:29.865Z,101006.36
2022-08-25T03:55:06.128Z,101004.00
2022-08-25T03:57:38.529Z,100997.82
2022-08-25T04:00:29.408Z,100991.62
2022-08-25T04:03:01.677Z,100989.32
2022-08-25T04:05:41.424Z,100989.92
2022-08-25T04:08:19.440Z,100992.98
2022-08-25T04:11:08.026Z,100998.14
2022-08-25T04:13:49.363Z,100995.00
2022-08-25T04:16:33.254Z,100997.73
2022-08-25T04:19:09.670Z,100997.35
2022-08-25T04:21:50.673Z,100998.52
2022-08-25T04:24:22.380Z,100999.01
2022-08-25T04:26:55.102Z,101000.60
2022-08-25T04:29:37.285Z,100994.54
2022-08-25T04:32:23.081Z,101000.28
2022-08-25T04:34:57.594Z,101000.92
2022-08-25T04:37:49.321Z,100999.30
2022-08-25T04:40:28.765Z,101000.34
2022-08-25T04:43:16.489Z,100999.18
2022-08-25T04:45:51.674Z,101005.34
2022-08-25T04:48:27.859Z,101007.77
2022-08-25T04:51:27.641Z,101004.85
2022-08-25T04:54:16.425Z,101008.96
2022-08-25T04:56:47.708Z,101010.48
2022-08-25T04:59:36.028Z,101006.13
2022-08-25T05:02:13.548Z,101001.02
2022-08-25T05:04:53.914Z,101003.93
2022-08-25T05:07:33.864Z,101003.01
2022-08-25T05:10:05.718Z,101002.30
2022-08-25T05:12:41.167Z,100995.13
2022-08-25T05:15:36.600Z,100994.83
2022-08-25T05:18:18.203Z,100990.66
2022-08-25T05:20:53.797Z,100997.64
2022-08-25T05:23:42.577Z,100995.73
2022-08-25T05:26:28.213Z,100994.75
2022-08-25T05:29:04.752Z,100993.46
2022-08-25T05:31:41.746Z,100993.57
2022-08-25T05:34:12.535Z,100986.55
2022-08-25T05:36:44.833Z,100985.89
2022-08-25T05:39:19.523Z,100987.91
2022-08-25T05:41:51.086Z,100984.30
2022-08-25T05:44:21.310Z,100977.09
2022-08-25T05:46:52.768Z,100979.21
2022-08-25T05:49:23.929Z,100972.16
2022-08-25T05:51:52.515Z,100964.16
2022-08-25T05:54:24.448Z,100966.95
2022-08-25T05:56:58.997Z,100971.33
2022-08-25T05:59:33.830Z,100974.79
2022-08-25T06:02:21.275Z,100979.88
2022-08-25T06:04:52.933Z,100981.33
2022-08-25T06:07:24.671Z,100983.22
2022-08-25T06:09:59.032Z,100990.63
2022-08-25T06:12:57.271Z,100990.29
2022-08-25T06:15:38.854Z,100995.25
2022-08-25T06:18:17.239Z,100994.55
2022-08-25T06:20:46.026Z,100991.86
2022-08-25T06:23:19.526Z,100994.41
2022-08-25T06:26:05.238Z,100994.59
2022-08-25T06:28:37.376Z,100993.53
2022-08-25T06:31:46.477Z,100993.59
2022-08-25T06:34:33.015Z,100998.27
2022-08-25T06:37:28.353Z,101002.20
2022-08-25T06:39:59.670Z,101006.40
2022-08-25T06:42:39.829Z,101011.15
2022-08-25T06:45:19.680Z,101013.13
2022-08-25T06:47:53.108Z,101011.44
2022-08-25T06:50:50.329Z,101008.31
2022-08-25T06:53:22.491Z,101004.01
2022-08-25T06:56:10.389Z,101007.84
2022-08-25T06:58:45.746Z,101003.69
2022-08-25T07:01:47.203Z,101005.74
2022-08-25T07:04:40.597Z,101005.14
2022-08-25T07:07:12.965Z,101009.22
2022-08-25T07:09:47.660Z,101009.51
2022-08-25T07:12:30.228Z,101012.92
2022-08-25T07:15:19.280Z,101013.63
2022-08-25T07:18:15.712Z,101019.13
2022-08-25T07:20:52.262Z,101025.31
2022-08-25T07:23:48.841Z,101020.38
2022-08-25T07:26:37.301Z,101021.05
2022-08-25T07:29:32.725Z,101027.13
2022-08-25T07:32:26.551Z,101024.60
2022-08-25T07:35:24.191Z,101028.14
2022-08-25T07:38:04.679Z,101027.85
2022-08-25T07:41:05.189Z,101029.55
2022-08-25T07:43:39.424Z,101030.88
2022-08-25T07:46:19.636Z,101036.98
2022-08-25T07:52:11.868Z,101045.63
2022-08-25T07:54:54.203Z,101045.44
2022-08-25T07:57:28.387Z,101043.31
2022-08-25T08:00:03.291Z,101049.86
2022-08-25T08:02:42.180Z,101052.92
2022-08-25T08:05:15.432Z,101055.93
2022-08-25T08:07:56.531Z,101059.64
2022-08-25T08:10:53.936Z,101061.05
2022-08-25T08:13:36.793Z,101060.67
2022-08-25T08:16:41.303Z,101067.86
2022-08-25T08:19:45.235Z,101072.83
2022-08-25T08:22:18.124Z,101069.52
2022-08-25T08:25:04.587Z,101072.48
2022-08-25T08:27:47.236Z,101072.45
2022-08-25T08:30:27.483Z,101071.37
2022-08-25T08:33:10.070Z,101068.43
2022-08-25T08:35:46.138Z,101067.60
2022-08-25T08:38:22.092Z,101062.94
2022-08-25T08:44:45.883Z,101060.45
2022-08-25T08:47:55.175Z,101062.92
2022-08-25T08:51:00.735Z,101061.73
2022-08-25T08:54:24.241Z,101056.65
2022-08-25T08:57:17.707Z,101054.45
2022-08-25T08:59:50.695Z,101056.23
2022-08-25T09:02:39.449Z,101058.00
2022-08-25T09:05:51.988Z,101054.10
2022-08-25T09:08:28.520Z,101051.11
2022-08-25T09:11:16.509Z,101048.11
2022-08-25T09:14:43.734Z,101042.23
2022-08-25T09:17:35.663Z,101035.92
2022-08-25T09:20:45.654Z,101033.99
2022-08-25T09:23:47.504Z,101025.76
2022-08-25T09:26:28.595Z,101022.10
2022-08-25T09:29:07.068Z,101018.22
2022-08-25T09:32:00.668Z,101017.55
2022-08-25T09:34:54.244Z,101017.71
2022-08-25T09:37:49.827Z,101020.27
2022-08-25T09:40:24.914Z,101020.90
2022-08-25T09:43:05.749Z,101016.23
2022-08-25T09:46:07.391Z,101015.40
2022-08-25T09:49:13.717Z,101018.89
2022-08-25T09:52:01.081Z,101012.59
2022-08-25T09:54:50.596Z,101006.05
2022-08-25T09:57:37.840Z,100997.49
2022-08-25T10:00:45.212Z,100993.82
2022-08-25T10:03:25.195Z,100988.88
2022-08-25T10:06:26.574Z,100990.30
2022-08-25T10:09:07.536Z,100988.33
2022-08-25T10:12:15.667Z,100981.61
2022-08-25T10:15:29.768Z,100982.08
2022-08-25T10:18:32.121Z,100971.88
2022-08-25T10:21:25.943Z,100972.35
2022-08-25T10:24:11.355Z,100962.46
2022-08-25T10:26:59.889Z,100962.95
2022-08-25T10:30:10.072Z,100957.50
2022-08-25T10:33:04.733Z,100953.02
2022-08-25T10:36:07.553Z,100949.49
2022-08-25T10:39:34.204Z,100950.14
2022-08-25T10:42:17.714Z,100949.33
2022-08-25T10:45:31.652Z,100943.47
2022-08-25T10:48:06.584Z,100941.80
2022-08-25T10:51:20.566Z,100939.48
2022-08-25T10:54:18.298Z,100930.55
2022-08-25T10:57:01.933Z,100926.69
2022-08-25T10:59:39.656Z,100927.06
2022-08-25T11:02:38.527Z,100924.31
2022-08-25T11:05:42.545Z,100927.14
2022-08-25T11:08:25.774Z,100938.90
2022-08-25T11:11:11.683Z,100945.86
2022-08-25T11:13:48.740Z,100940.98
2022-08-25T11:16:44.782Z,100939.38
2022-08-25T11:19:30.884Z,100942.95
2022-08-25T11:22:20.028Z,100945.17
2022-08-25T11:25:18.741Z,100940.77
2022-08-25T11:28:36.347Z,100940.00
2022-08-25T11:31:17.565Z,100928.14
2022-08-25T11:33:55.500Z,100930.23
2022-08-25T11:36:42.303Z,100931.81
2022-08-25T11:39:52.500Z,100933.89
2022-08-25T11:43:20.680Z,100934.83
2022-08-25T11:46:10.472Z,100934.90
2022-08-25T11:49:04.619Z,100931.88
2022-08-25T11:52:03.498Z,100932.02
2022-08-25T11:54:55.428Z,100932.02
2022-08-25T11:57:46.797Z,100931.75
2022-08-25T12:00:37.495Z,100927.41
2022-08-25T12:03:43.477Z,100924.14
2022-08-25T12:06:31.900Z,100917.09
2022-08-25T12:09:00.827Z,100914.17
2022-08-25T12:11:38.790Z,100911.18
2022-08-25T12:14:16.985Z,100911.29
2022-08-25T12:17:18.459Z,100907.80
2022-08-25T12:19:51.029Z,100912.11
2022-08-25T12:22:27.074Z,100914.64
2022-08-25T12:25:04.112Z,100913.44
2022-08-25T12:27:38.996Z,100913.84
2022-08-25T12:30:20.680Z,100921.14
2022-08-25T12:33:12.418Z,100923.56
2022-08-25T12:36:07.320Z,100925.63
2022-08-25T12:38:53.095Z,100922.99
2022-08-25T12:41:31.002Z,100925.55
2022-08-25T12:44:47.226Z,100922.64
2022-08-25T12:47:27.394Z,100924.69
2022-08-25T12:50:33.633Z,100920.99
2022-08-25T12:53:49.314Z,100920.98
2022-08-25T12:56:50.052Z,100923.98
2022-08-25T12:59:45.805Z,100922.45
2022-08-25T13:02:26.422Z,100924.13
2022-08-25T13:05:12.130Z,100919.34
2022-08-25T13:08:15.568Z,100925.09
2022-08-25T13:11:14.231Z,100922.86
2022-08-25T13:14:18.083Z,100918.75
2022-08-25T13:17:01.120Z,100917.68
2022-08-25T13:19:34.764Z,100914.55
2022-08-25T13:22:18.487Z,100914.84
2022-08-25T13:27:41.968Z,100906.98
2022-08-25T13:30:28.236Z,100905.31
2022-08-25T13:33:20.544Z,100903.65
2022-08-25T13:36:18.300Z,100904.52
2022-08-25T13:39:04.060Z,100899.54
2022-08-25T13:41:38.172Z,100895.10
2022-08-25T13:44:06.757Z,100894.66
2022-08-25T13:46:42.944Z,100892.98
2022-08-25T13:49:26.559Z,100889.69
2022-08-25T13:51:59.438Z,100888.66
2022-08-25T13:55:12.463Z,100885.96
2022-08-25T13:57:56.785Z,100881.36
2022-08-25T14:00:53.668Z,100878.15
2022-08-25T14:03:37.515Z,100878.15
2022-08-25T14:06:39.477Z,100878.77
2022-08-25T14:09:26.639Z,100883.75
2022-08-25T14:15:26.286Z,100880.13
2022-08-25T14:18:07.462Z,100874.20
2022-08-25T14:20:37.723Z,100874.76
2022-08-25T14:23:19.073Z,100877.15
2022-08-25T14:26:10.580Z,100877.66
2022-08-25T14:28:51.089Z,100877.29
2022-08-25T14:31:29.123Z,100873.89
2022-08-25T14:34:08.192Z,100875.91
2022-08-25T14:36:51.747Z,100875.38
2022-08-25T14:39:21.979Z,100871.03
2022-08-25T14:42:17.136Z,100868.06
2022-08-25T14:44:52.497Z,100867.02
2022-08-25T14:47:24.621Z,100857.73
2022-08-25T14:49:58.912Z,100851.57
2022-08-25T14:52:32.614Z,100850.61
2022-08-25T14:55:04.297Z,100851.20
2022-08-25T14:57:52.720Z,100852.23
2022-08-25T15:00:43.282Z,100857.40
2022-08-25T15:03:26.238Z,100855.63
2022-08-25T15:06:00.608Z,100851.44
2022-08-25T15:08:48.801Z,100852.09
2022-08-25T15:11:54.767Z,100860.77
2022-08-25T15:14:36.379Z,100855.98
2022-08-25T15:17:09.950Z,100856.39
2022-08-25T15:20:17.210Z,100853.29
2022-08-25T15:22:51.219Z,100852.70
2022-08-25T15:25:25.671Z,100848.27
2022-08-25T15:28:22.159Z,100844.61
2022-08-25T15:31:03.484Z,100842.61
2022-08-25T15:33:41.992Z,100841.52
2022-08-25T15:36:23.311Z,100837.41
2022-08-25T15:39:16.068Z,100838.48
2022-08-25T15:42:02.775Z,100835.65
2022-08-25T15:44:53.527Z,100830.03
2022-08-25T15:47:45.584Z,100833.91
2022-08-25T15:50:34.706Z,100828.23
2022-08-25T15:53:12.590Z,100823.55
2022-08-25T15:55:43.722Z,100821.00
2022-08-25T15:58:24.157Z,100819.21
2022-08-25T16:01:00.120Z,100813.64
2022-08-25T16:03:29.105Z,100814.35
2022-08-25T16:06:04.165Z,100812.45
2022-08-25T16:08:37.432Z,100810.50
2022-08-25T16:11:39.398Z,100809.98
2022-08-25T16:14:15.254Z,100805.98
2022-08-25T16:16:47.193Z,100798.80
2022-08-25T16:19:15.977Z,100795.67
2022-08-25T16:21:47.137Z,100795.15
2022-08-25T16:24:16.755Z,100793.26
2022-08-25T16:26:50.254Z,100792.44
2022-08-25T16:29:26.404Z,100785.20
2022-08-25T16:32:07.745Z,100791.21
2022-08-25T16:34:40.267Z,100791.66
2022-08-25T16:37:12.748Z,100791.77
2022-08-25T16:39:45.811Z,100787.85
2022-08-25T16:42:15.379Z,100783.66
2022-08-25T16:44:47.783Z,100782.92
2022-08-25T16:47:29.661Z,100781.58
2022-08-25T16:50:13.342Z,100779.61
2022-08-25T16:53:32.138Z,100778.53
2022-08-25T16:56:08.540Z,100780.91
2022-08-25T16:59:04.293Z,100779.95
2022-08-25T17:01:40.074Z,100781.58
2022-08-25T17:04:32.203Z,100778.86
2022-08-25T17:07:09.477Z,100774.73
2022-08-25T17:09:42.845Z,100778.52
2022-08-25T17:12:22.417Z,100775.30
2022-08-25T17:14:55.400Z,100772.84
2022-08-25T17:17:27.443Z,100774.00
2022-08-25T17:20:05.667Z,100776.13
2022-08-25T17:22:40.243Z,100776.65
2022-08-25T17:25:14.815Z,100775.27
2022-08-25T17:27:54.419Z,100775.19
2022-08-25T17:30:29.298Z,100774.11
2022-08-25T17:33:24.033Z,100776.23
2022-08-25T17:36:19.423Z,100776.44
2022-08-25T17:38:54.331Z,100779.70
2022-08-25T17:41:39.823Z,100779.64
2022-08-25T17:44:31.193Z,100781.56
2022-08-25T17:47:16.368Z,100777.52
2022-08-25T17:49:59.725Z,100778.13
2022-08-25T17:52:39.709Z,100774.45
2022-08-25T17:55:12.076Z,100777.68
2022-08-25T17:58:28.495Z,100776.03
2022-08-25T18:00:58.881Z,100782.05
2022-08-25T18:03:28.383Z,100780.67
2022-08-25T18:05:57.171Z,100779.59
2022-08-25T18:08:29.896Z,100783.08
2022-08-25T18:11:04.912Z,100779.80
2022-08-25T18:13:57.968Z,100778.55
2022-08-25T18:16:33.146Z,100778.42
2022-08-25T18:19:26.073Z,100778.50
2022-08-25T18:22:23.906Z,100779.41
2022-08-25T18:25:06.939Z,100777.77
2022-08-25T18:27:47.196Z,100782.89
2022-08-25T18:30:36.147Z,100775.91
2022-08-25T18:33:10.669Z,100778.15
2022-08-25T18:36:03.435Z,100776.66
2022-08-25T18:38:58.208Z,100769.71
2022-08-25T18:41:36.734Z,100771.22
2022-08-25T18:44:06.719Z,100771.33
2022-08-25T18:46:42.324Z,100772.20
2022-08-25T18:49:26.920Z,100779.42
2022-08-25T18:51:58.305Z,100776.03
2022-08-25T18:54:47.557Z,100770.27
2022-08-25T18:57:22.914Z,100771.66
2022-08-25T18:59:55.054Z,100768.10
2022-08-25T19:02:33.097Z,100769.16
2022-08-25T19:05:10.730Z,100771.09
2022-08-25T19:07:42.400Z,100775.90
2022-08-25T19:10:14.949Z,100772.92
2022-08-25T19:13:08.568Z,100774.04
2022-08-25T19:15:59.936Z,100774.86
2022-08-25T19:18:39.045Z,100767.77
2022-08-25T19:21:13.497Z,100768.77
2022-08-25T19:24:01.185Z,100770.16
2022-08-25T19:27:07.153Z,100766.13
2022-08-25T19:29:49.476Z,100762.91
2022-08-25T19:32:36.081Z,100762.55
2022-08-25T19:35:25.326Z,100767.43
2022-08-25T19:38:00.892Z,100767.36
2022-08-25T19:40:47.478Z,100763.64
2022-08-25T19:43:20.053Z,100760.95
2022-08-25T19:45:51.980Z,100761.88
2022-08-25T19:48:38.211Z,100762.65
2022-08-25T19:51:27.378Z,100764.11
2022-08-25T19:54:35.183Z,100759.87
2022-08-25T19:57:28.495Z,100759.98
2022-08-25T20:00:32.893Z,100754.52
2022-08-25T20:03:21.545Z,100759.20
2022-08-25T20:06:36.250Z,100758.27
2022-08-25T20:09:35.763Z,100756.77
2022-08-25T20:12:06.168Z,100757.31
2022-08-25T20:14:56.736Z,100755.40
2022-08-25T20:17:39.228Z,100755.00
2022-08-25T20:20:23.486Z,100756.23
2022-08-25T20:23:16.055Z,100752.83
2022-08-25T20:25:51.969Z,100750.59
2022-08-25T20:28:20.751Z,100751.63
2022-08-25T20:31:20.980Z,100745.06
2022-08-25T20:34:00.988Z,100744.06
2022-08-25T20:36:50.164Z,100741.57
2022-08-25T20:39:33.950Z,100747.70
2022-08-25T20:42:17.632Z,100747.70
2022-08-25T20:45:15.355Z,100749.19
2022-08-25T20:48:01.981Z,100747.81
2022-08-25T20:50:42.627Z,100747.30
2022-08-25T20:53:47.798Z,100748.80
2022-08-25T20:56:36.836Z,100748.30
2022-08-25T20:59:17.730Z,100755.80
2022-08-25T21:01:55.708Z,100754.91
2022-08-25T21:05:09.372Z,100754.95
2022-08-25T21:07:44.227Z,100757.60
2022-08-25T21:10:21.258Z,100756.71
2022-08-25T21:13:19.148Z,100752.41
2022-08-25T21:16:15.847Z,100751.73
2022-08-25T21:18:51.872Z,100746.52
2022-08-25T21:21:32.911Z,100747.31
2022-08-25T21:24:09.873Z,100742.39
2022-08-25T21:27:03.536Z,100742.63
2022-08-25T21:29:44.340Z,100741.09
2022-08-25T21:32:23.865Z,100738.96
2022-08-25T21:35:40.233Z,100737.67
2022-08-25T21:38:32.202Z,100729.08
2022-08-25T21:41:19.107Z,100731.55
2022-08-25T21:44:01.518Z,100726.93
2022-08-25T21:46:41.554Z,100728.23
2022-08-25T21:49:26.911Z,100726.73
2022-08-25T21:52:09.227Z,100723.77
2022-08-25T21:55:01.567Z,100721.36
2022-08-25T21:57:44.168Z,100720.60
2022-08-25T22:00:24.124Z,100720.52
2022-08-25T22:03:38.194Z,100718.65
2022-08-25T22:06:42.043Z,100714.54
2022-08-25T22:10:01.187Z,100714.11
2022-08-25T22:12:36.536Z,100718.46
2022-08-25T22:15:36.650Z,100714.41
2022-08-25T22:18:13.393Z,100713.99
2022-08-25T22:21:01.085Z,100711.53
2022-08-25T22:23:44.544Z,100704.65
2022-08-25T22:26:39.696Z,100703.02
2022-08-25T22:29:23.241Z,100697.41
2022-08-25T22:32:19.256Z,100696.34
2022-08-25T22:35:11.462Z,100690.34
2022-08-25T22:38:27.489Z,100683.65
2022-08-25T22:41:21.573Z,100680.69
2022-08-25T22:43:58.426Z,100679.30
2022-08-25T22:46:39.441Z,100674.04
2022-08-25T22:49:22.344Z,100672.44
2022-08-25T22:52:06.162Z,100667.10
2022-08-25T22:54:51.868Z,100661.36
2022-08-25T22:57:45.198Z,100660.58
2022-08-25T23:00:38.186Z,100653.90
2022-08-25T23:03:38.177Z,100647.67
2022-08-25T23:06:29.305Z,100646.27
2022-08-25T23:08:58.745Z,100643.54
2022-08-25T23:11:30.103Z,100642.86
2022-08-25T23:14:05.861Z,100636.97
2022-08-25T23:16:43.460Z,100634.68
2022-08-25T23:19:28.795Z,100634.64
2022-08-25T23:22:11.153Z,100631.31
2022-08-25T23:24:57.703Z,100627.64
2022-08-25T23:27:29.665Z,100624.57
2022-08-25T23:30:27.586Z,100622.37
2022-08-25T23:33:04.726Z,100625.67
2022-08-25T23:36:24.941Z,100621.22
2022-08-25T23:39:04.634Z,100624.11
2022-08-25T23:41:43.647Z,100624.72
2022-08-25T23:44:43.906Z,100626.80
2022-08-25T23:47:49.665Z,100622.04
2022-08-25T23:50:24.687Z,100618.82
2022-08-25T23:53:04.345Z,100614.15
2022-08-25T23:55:56.703Z,100605.06
2022-08-25T23:58:54.659Z,100607.17
